Reklama

Seznam meteostanic a jejich METAR

Vyhledat místa podle abecedy:
A B C D E F G H I J K L M N O P Q R S T U V W X Y Z

Filtrovat:

ID stanice:
a/nebo
Název místa (fulltext):
 
Místo (ID)Naposledy načteno 
Brno - Tuřany (Brno/Tu) 22.01.2019 18:00 UTC Zobrazit data
Místo: Brno - Tuřany
Teplota: -5 °C (pocitová: -14 °C)
Vítr: 3 m/s z(e) 70°
Počasí: zataženo
Dohlednost: 1200 m
Zákl. oblačnosti: 7/8 60 m
Vlhkost: 93%
Červená - Opava (Cervena/uL) 22.01.2019 18:00 UTC Zobrazit data
Místo: Červená - Opava
Teplota: -6 °C (pocitová: -16.6 °C)
Vítr: 4 m/s z(e) 60°
Počasí: slunečno
Dohlednost: 11 km
Zákl. oblačnosti: N/A
Vlhkost: 80%
České Budějovice (C.Budej/po) 22.01.2019 18:00 UTC Zobrazit data
Místo: České Budějovice
Teplota: -5 °C (pocitová: -12.3 °C)
Vítr: 2 m/s z(e) 150°
Počasí: zataženo
Dohlednost: 8 km
Zákl. oblačnosti: N/A
Vlhkost: 86%
Cheb (Cheb) 22.01.2019 18:00 UTC Zobrazit data
Místo: Cheb
Teplota: -5 °C (pocitová: -10.4 °C)
Vítr: 1 m/s z(e) 110°
Počasí: skoro zataženo
Dohlednost: 17 km
Zákl. oblačnosti: 7/8 480 m
Vlhkost: 80%
Chotusice - Čáslav (Caslav) 22.01.2019 18:00 UTC Zobrazit data
Místo: Chotusice - Čáslav
Teplota: -4 °C (pocitová: -9.2 °C)
Vítr: 1 m/s z(e) 120°
Počasí: zataženo
Dohlednost: 8 km
Zákl. oblačnosti: N/A
Vlhkost: 80%
Churáňov (Churanov) 22.01.2019 18:00 UTC Zobrazit data
Místo: Churáňov
Teplota: -10 °C (pocitová: -18.8 °C)
Vítr: 2 m/s z(e) 130°
Počasí: skorojasno
Dohlednost: 20 km
Zákl. oblačnosti: 2/8 90 m
Vlhkost: 92%
Doksany - Litoměřice (Doksany) 22.01.2019 18:00 UTC Zobrazit data
Místo: Doksany - Litoměřice
Teplota: -4 °C (pocitová: 10.7 °C)
Vítr: 0 m/s z(e) 0°
Počasí: zataženo
Dohlednost: 3000 m
Zákl. oblačnosti: 8/8 810 m
Vlhkost: 100%
Dukovany (Dukovany) 22.01.2019 17:00 UTC Zobrazit data
Místo: Dukovany
Teplota: -6 °C (pocitová: -13.6 °C)
Vítr: 2 m/s z(e) 130°
Počasí: zataženo
Dohlednost: 1200 m
Zákl. oblačnosti: 8/8 180 m
Vlhkost: 100%
Holešov (Holesov) 22.01.2019 18:00 UTC Zobrazit data
Místo: Holešov
Teplota: -6 °C (pocitová: -11.6 °C)
Vítr: 1 m/s z(e) 340°
Počasí: zataženo
Dohlednost: 1000 m
Zákl. oblačnosti: 8/8 60 m
Vlhkost: 100%
Kadaň - Tušimice (Tusimice) 22.01.2019 18:00 UTC Zobrazit data
Místo: Kadaň - Tušimice
Teplota: -4 °C (pocitová: -9.2 °C)
Vítr: 1 m/s z(e) 0°
Počasí: zataženo
Dohlednost: 2800 m
Zákl. oblačnosti: 7/8 540 m
Vlhkost: 93%
Karlovy Vary (K.Vary) 22.01.2019 18:00 UTC Zobrazit data
Místo: Karlovy Vary
Teplota: -8 °C (pocitová: -16.2 °C)
Vítr: 2 m/s z(e) 80°
Počasí: skoro zataženo
Dohlednost: 15 km
Zákl. oblačnosti: 5/8 330 m
Vlhkost: 93%
Kocelovice (Kocelovice) 22.01.2019 18:00 UTC Zobrazit data
Místo: Kocelovice
Teplota: -5 °C (pocitová: -12.3 °C)
Vítr: 2 m/s z(e) 100°
Počasí: skorojasno
Dohlednost: 12 km
Zákl. oblačnosti: 1/8 600 m
Vlhkost: 86%
Kopisty (Kopisty) 22.01.2019 15:00 UTC Zobrazit data
Místo: Kopisty
Teplota: -3 °C (pocitová: 11.3 °C)
Vítr: 0 m/s z(e) 0°
Počasí: zataženo
Dohlednost: 4000 m
Zákl. oblačnosti: 8/8 630 m
Vlhkost: 86%
Kostelní Myslová (K.Myslova) 22.01.2019 18:00 UTC Zobrazit data
Místo: Kostelní Myslová
Teplota: -6 °C (pocitová: -15.3 °C)
Vítr: 3 m/s z(e) 130°
Počasí: zataženo
Dohlednost: 5 km
Zákl. oblačnosti: 8/8 210 m
Vlhkost: 86%
Křešín - Kramolín (Kramolin) 22.01.2019 18:00 UTC Zobrazit data
Místo: Křešín - Kramolín
Teplota: -6 °C (pocitová: -15.3 °C)
Vítr: 3 m/s z(e) 130°
Počasí: zataženo
Dohlednost: 7 km
Zákl. oblačnosti: N/A
Vlhkost: 80%
Kuchařovice - Znojmo (Kucharovic) 22.01.2019 18:00 UTC Zobrazit data
Místo: Kuchařovice - Znojmo
Teplota: -6 °C (pocitová: -11.6 °C)
Vítr: 1 m/s z(e) 0°
Počasí: mlha
Dohlednost: 600 m
Zákl. oblačnosti: 8/8 30 m
Vlhkost: 93%
Liberec (Liberec) 22.01.2019 18:00 UTC Zobrazit data
Místo: Liberec
Teplota: -5 °C (pocitová: -12.3 °C)
Vítr: 2 m/s z(e) 140°
Počasí: slunečno
Dohlednost: 14 km
Zákl. oblačnosti: N/A
Vlhkost: 74%
Luká (Luka) 22.01.2019 17:00 UTC Zobrazit data
Místo: Luká
Teplota: -8 °C (pocitová: -14.1 °C)
Vítr: 1 m/s z(e) 0°
Počasí: mlha
Dohlednost: 100 m
Zákl. oblačnosti: 8/8 30 m
Vlhkost: 86%
Lysá Hora (Lysa Hora) 22.01.2019 18:00 UTC Zobrazit data
Místo: Lysá Hora
Teplota: -10 °C (pocitová: -23.9 °C)
Vítr: 6 m/s z(e) 110°
Počasí: slunečno
Dohlednost: 25 km
Zákl. oblačnosti: N/A
Vlhkost: 92%
Milešovka (Milesovka) 22.01.2019 17:00 UTC Zobrazit data
Místo: Milešovka
Teplota: -7 °C (pocitová: -19 °C)
Vítr: 5 m/s z(e) 160°
Počasí: zataženo
Dohlednost: 4000 m
Zákl. oblačnosti: 8/8 90 m
Vlhkost: 93%
Mošnov (Ostrava/Mo) 22.01.2019 18:00 UTC Zobrazit data
Místo: Mošnov
Teplota: -5 °C (pocitová: 10 °C)
Vítr: 0 m/s z(e) 0°
Počasí: zataženo
Dohlednost: 4000 m
Zákl. oblačnosti: N/A
Vlhkost: 86%
Náměšť nad Oslavou (Namest n/O) 22.01.2019 17:00 UTC Zobrazit data
Místo: Náměšť nad Oslavou
Teplota: -7 °C (pocitová: -16.7 °C)
Vítr: 3 m/s z(e) 130°
Počasí: zataženo
Dohlednost: 2000 m
Zákl. oblačnosti: 2/8 210 m
Vlhkost: 100%
Pardubice (Pardubice) 22.01.2019 18:00 UTC Zobrazit data
Místo: Pardubice
Teplota: -6 °C (pocitová: 9.4 °C)
Vítr: 0 m/s z(e) 0°
Počasí: zataženo
Dohlednost: 8 km
Zákl. oblačnosti: N/A
Vlhkost: 86%
Pec pod Sněžkou (Pec p.Snez) 22.01.2019 18:00 UTC Zobrazit data
Místo: Pec pod Sněžkou
Teplota: -12 °C (pocitová: 5.7 °C)
Vítr: 0 m/s z(e) 0°
Počasí: slunečno
Dohlednost: 30 km
Zákl. oblačnosti: N/A
Vlhkost: 92%
Plzeň město - Mikulka (Plzen/Miku) 22.01.2019 18:00 UTC Zobrazit data
Místo: Plzeň město - Mikulka
Teplota: -6 °C (pocitová: -15.3 °C)
Vítr: 3 m/s z(e) 360°
Počasí: zataženo
Dohlednost: 8 km
Zákl. oblačnosti: 5/8 750 m
Vlhkost: 86%
Polom (Polom) 22.01.2019 18:00 UTC Zobrazit data
Místo: Polom
Teplota: -7 °C (pocitová: -14.9 °C)
Vítr: 2 m/s z(e) 150°
Počasí: slunečno
Dohlednost: 30 km
Zákl. oblačnosti: N/A
Vlhkost: 68%
Praha - Karlov (Praha/Kar) 22.01.2019 18:00 UTC Zobrazit data
Místo: Praha - Karlov
Teplota: -3 °C (pocitová: -9.8 °C)
Vítr: 2 m/s z(e) 90°
Počasí: zataženo
Dohlednost: 5 km
Zákl. oblačnosti: N/A
Vlhkost: 80%
Praha - Kbely (Praha/Kbe) 22.01.2019 18:00 UTC Zobrazit data
Místo: Praha - Kbely
Teplota: -5 °C (pocitová: -14 °C)
Vítr: 3 m/s z(e) 70°
Počasí: zataženo
Dohlednost: 6 km
Zákl. oblačnosti: N/A
Vlhkost: 86%
Praha - Libuš (Praha/Lib) 22.01.2019 18:00 UTC Zobrazit data
Místo: Praha - Libuš
Teplota: -4 °C (pocitová: -11 °C)
Vítr: 2 m/s z(e) 80°
Počasí: zataženo
Dohlednost: 4500 m
Zákl. oblačnosti: N/A
Vlhkost: 86%
Praha - Ruzyně (Praha/Ru) 22.01.2019 18:00 UTC Zobrazit data
Místo: Praha - Ruzyně
Teplota: -6 °C (pocitová: -15.3 °C)
Vítr: 3 m/s z(e) 90°
Počasí: zataženo
Dohlednost: 5 km
Zákl. oblačnosti: N/A
Vlhkost: 93%
Přibyslav (Pribyslav) 22.01.2019 18:00 UTC Zobrazit data
Místo: Přibyslav
Teplota: -8 °C (pocitová: -18 °C)
Vítr: 3 m/s z(e) 110°
Počasí: zataženo
Dohlednost: 3000 m
Zákl. oblačnosti: N/A
Vlhkost: 93%
Přimda (Primda) 22.01.2019 18:00 UTC Zobrazit data
Místo: Přimda
Teplota: -8 °C (pocitová: -18 °C)
Vítr: 3 m/s z(e) 90°
Počasí: skorojasno
Dohlednost: 14 km
Zákl. oblačnosti: 1/8 330 m
Vlhkost: 93%
Šerák (Serak) 22.01.2019 18:00 UTC Zobrazit data
Místo: Šerák
Teplota: -9 °C (pocitová: -22.5 °C)
Vítr: 6 m/s z(e) 120°
Počasí: slunečno
Dohlednost: 35 km
Zákl. oblačnosti: N/A
Vlhkost: 57%
Svratouch (Svratouch) 22.01.2019 18:00 UTC Zobrazit data
Místo: Svratouch
Teplota: -9 °C (pocitová: -21.8 °C)
Vítr: 5 m/s z(e) 170°
Počasí: zataženo
Dohlednost: 3100 m
Zákl. oblačnosti: N/A
Vlhkost: 93%
Temelín (Temelin) 22.01.2019 18:00 UTC Zobrazit data
Místo: Temelín
Teplota: -5 °C (pocitová: -15.2 °C)
Vítr: 4 m/s z(e) 80°
Počasí: skorojasno
Dohlednost: 12 km
Zákl. oblačnosti: 1/8 690 m
Vlhkost: 80%
Ústí nad Labem - Kočkov (Usti n/L) 22.01.2019 18:00 UTC Zobrazit data
Místo: Ústí nad Labem - Kočkov
Teplota: -4 °C (pocitová: -12.7 °C)
Vítr: 3 m/s z(e) 200°
Počasí: zataženo
Dohlednost: 10 km
Zákl. oblačnosti: 8/8 510 m
Vlhkost: 86%
Ústí nad Orlicí (Usti n/O) 22.01.2019 18:00 UTC Zobrazit data
Místo: Ústí nad Orlicí
Teplota: -7 °C (pocitová: -12.9 °C)
Vítr: 1 m/s z(e) 130°
Počasí: zataženo
Dohlednost: 5 km
Zákl. oblačnosti: N/A
Vlhkost: 86%
Aalborg (EKYT) 22.01.2019 18:50 UTC Zobrazit METAR
EKYT 221850Z AUTO 13014KT 9999 SCT014/// 00/M01 Q1004
Aarhus (EKAH) 22.01.2019 10:50 UTC Zobrazit METAR
EKAH 221050Z 15005KT 110V200 2000 BR OVC001 01/01 Q1009 R99R/720195
Abu Dhabi (OMAA) 22.01.2019 19:00 UTC Zobrazit METAR
OMAA 221900Z 27004KT CAVOK 19/13 Q1017 NOSIG
Abuja (DNAA) 22.01.2019 19:00 UTC Zobrazit METAR
DNAA 221900Z 22005KT 8000 NSC 30/05 Q1012 NOSIG
Accra (DGAA) 22.01.2019 19:00 UTC Zobrazit METAR
DGAA 221900Z 21012KT CAVOK 28/25 Q1010 NOSIG
Addis Abeba (HAAB) 22.01.2019 14:00 UTC Zobrazit METAR
HAAB 221400Z 10010KT CAVOK 25/M01 Q1024
Agana (PGUM) 22.01.2019 18:45 UTC Zobrazit METAR
PGUM 221845Z 12003KT 10SM BKN017 BKN022 BKN041 25/25 A2986 RMK AO2 T02500250 $
Ahe Island (NTHE) Zatím nenačteno  
Akureyri (BIAR) 22.01.2019 19:00 UTC Zobrazit METAR
BIAR 221900Z 21003KT CAVOK M05/M08 Q0994 R01/390095
Almaty (UAAA) Zatím nenačteno  
Amman (OJAM) 22.01.2019 19:00 UTC Zobrazit METAR
OJAM 221900Z 24005KT 5000 HZ NSC 10/01 Q1017 NOSIG
Amsterdam (EHAM) 22.01.2019 18:55 UTC Zobrazit METAR
EHAM 221855Z 16009KT 2500 BR SCT003 OVC004 M00/M00 Q1000 R18R/110095 BECMG OVC003
Antananarivo (FMMI) 22.01.2019 19:00 UTC Zobrazit METAR
FMMI 221900Z 01004KT 340V050 9999 SCT010 BKN017 19/18 Q1019 NOSIG
1 2 3 ... 9 Další
Reklama

Počasí na Váš email

Emaily jsou bez reklamy a bez spamu



Odhlásit newsletter

Reklama


Lunární kalendář

  • 27.01.
  • 04.02.
  • 12.02.
  • 19.02.



Reklama


Reklama
Povinné ručení
Reklama



Reklama